Eaton, Idaho
Current Conditions -  °F | °C
As of 11:53 PM on Monday 20 Oct 2014 (Local Time) from KONO Reporting Station
Clear Clear  
Wind Chill: 58°   Ceiling: Unl
Heat Index: 58°   Visibility: 10mi
Dew Point: 41°   Wind: 28mph
Humidity: 53%   Direction: 310°NW
Pressure: 29.74"   Gusts: 37mph
Location:  44.398°N, 116.943°W
Report Text: KONO 210553Z AUTO 31024G32KT 10SM CLR 14/05 A2974 RMK AO2 PK WND 30032/0549 SLP068 T01440050 10233 20117 53017
Loading
Personal Weather Stations






























Interactive Weather Map
Tropical Storm Tracking
New forecast layout! Learn more

10-Day Weather Forecast

Advertisements
Track Severe Weather on mobile